Time;durP1;ratioP1;P1;durP2;ratioP2;P2;SDS_P1;SDS_P2;PMS_P1;PMS_P2;Temp;Humidity;BMP_temperature;BMP_pressure;BME280_temperature;BME280_humidity;BME280_pressure;Samples;Min_cycle;Max_cycle;Signal;HPM_P1;HPM_P2
2022/10/14 00:02:13;;;;;;;20.17;6.30;;;13.10;99.90;;;;;;5059503;28;20279;-59
2022/10/14 00:04:39;;;;;;;22.73;6.60;;;13.10;99.90;;;;;;5068595;28;20234;-59
2022/10/14 00:07:04;;;;;;;25.17;6.18;;;13.10;99.90;;;;;;5069682;28;20643;-59
2022/10/14 00:09:30;;;;;;;28.65;6.55;;;13.10;99.90;;;;;;5069285;28;20226;-60
2022/10/14 00:11:55;;;;;;;22.97;5.87;;;13.10;99.90;;;;;;5068734;28;20173;-60
2022/10/14 00:14:21;;;;;;;23.23;6.22;;;13.00;99.90;;;;;;5067203;28;20728;-60
2022/10/14 00:16:51;;;;;;;19.65;6.18;;;13.00;99.90;;;;;;5069659;28;20780;-60
2022/10/14 00:19:17;;;;;;;15.25;6.63;;;12.90;99.90;;;;;;5070380;28;20190;-60
2022/10/14 00:21:45;;;;;;;15.88;5.80;;;13.00;99.90;;;;;;5068983;28;20181;-60
2022/10/14 00:24:13;;;;;;;24.10;6.07;;;13.00;99.90;;;;;;5070546;28;20279;-60
2022/10/14 00:26:39;;;;;;;22.88;7.18;;;13.00;99.90;;;;;;5069845;28;20176;-60
2022/10/14 00:29:10;;;;;;;26.40;6.28;;;12.90;99.90;;;;;;5069678;28;20264;-60
2022/10/14 00:31:36;;;;;;;21.05;5.82;;;13.00;99.90;;;;;;5068999;28;20173;-60
2022/10/14 00:34:02;;;;;;;17.95;6.20;;;12.90;99.90;;;;;;5069704;28;20184;-61
2022/10/14 00:36:28;;;;;;;17.98;6.55;;;12.90;99.90;;;;;;5069746;28;20212;-61
2022/10/14 00:38:54;;;;;;;21.10;7.10;;;12.90;99.90;;;;;;5068028;28;20708;-61
2022/10/14 00:41:25;;;;;;;23.83;7.00;;;12.90;99.90;;;;;;5058671;28;20204;-61
2022/10/14 00:43:59;;;;;;;19.13;6.70;;;13.00;99.90;;;;;;5069560;28;20188;-60
2022/10/14 00:46:27;;;;;;;22.58;7.45;;;13.00;99.90;;;;;;5069907;28;20177;-60
2022/10/14 00:48:53;;;;;;;24.50;6.22;;;13.10;99.90;;;;;;5069000;28;20670;-61
2022/10/14 00:51:20;;;;;;;18.65;6.30;;;13.00;99.90;;;;;;5068932;28;20227;-61
2022/10/14 00:53:46;;;;;;;22.43;6.63;;;12.90;99.90;;;;;;5070402;28;20165;-61
2022/10/14 00:56:14;;;;;;;24.73;7.88;;;12.90;99.90;;;;;;5068880;28;20208;-62
2022/10/14 00:58:42;;;;;;;29.17;7.20;;;12.90;99.90;;;;;;5058568;28;20445;-61
2022/10/14 01:01:07;;;;;;;20.27;7.13;;;12.90;99.90;;;;;;5062921;28;20226;-61
2022/10/14 01:03:33;;;;;;;24.52;7.18;;;12.90;99.90;;;;;;5070797;28;20545;-62
2022/10/14 01:06:11;;;;;;;23.20;6.87;;;12.70;99.90;;;;;;5060879;28;20188;-61
2022/10/14 01:09:02;;;;;;;20.00;7.15;;;12.90;99.90;;;;;;5052366;28;20199;-61
2022/10/14 01:11:40;;;;;;;21.65;6.70;;;12.80;99.90;;;;;;5072156;28;20709;-61
2022/10/14 01:14:23;;;;;;;27.03;7.43;;;12.80;99.90;;;;;;5065825;28;20172;-61
2022/10/14 01:16:56;;;;;;;23.27;6.90;;;12.80;99.90;;;;;;5072416;28;20282;-61
2022/10/14 01:19:24;;;;;;;19.57;6.73;;;12.90;99.90;;;;;;5073073;28;20199;-61
2022/10/14 01:22:12;;;;;;;23.80;6.80;;;12.80;99.90;;;;;;5072931;28;20177;-61
2022/10/14 01:24:42;;;;;;;18.23;6.23;;;12.90;99.90;;;;;;5073594;28;20671;-61
2022/10/14 01:27:17;;;;;;;20.25;6.57;;;12.90;99.90;;;;;;5061841;28;20200;-61
2022/10/14 01:30:15;;;;;;;21.03;6.53;;;12.90;99.90;;;;;;5061582;28;20211;-60
2022/10/14 01:33:04;;;;;;;13.10;5.28;;;12.90;99.90;;;;;;5072894;28;20183;-61
2022/10/14 01:35:45;;;;;;;14.53;5.47;;;12.90;99.90;;;;;;5070184;28;20200;-60
2022/10/14 01:38:17;;;;;;;16.27;5.60;;;13.00;99.90;;;;;;5071301;28;20203;-60
2022/10/14 01:41:10;;;;;;;18.17;6.03;;;13.10;99.90;;;;;;5067055;28;20184;-60
2022/10/14 01:43:38;;;;;;;15.93;5.85;;;13.00;99.90;;;;;;5040608;28;20204;-60
2022/10/14 01:46:05;;;;;;;14.53;5.77;;;13.00;99.90;;;;;;5072380;28;20177;-61
2022/10/14 01:48:35;;;;;;;14.75;5.43;;;13.10;99.90;;;;;;5072345;28;20805;-60
2022/10/14 01:51:07;;;;;;;11.23;4.57;;;13.10;99.90;;;;;;5071745;28;20268;-61
2022/10/14 01:53:57;;;;;;;14.68;4.95;;;13.10;99.90;;;;;;5053367;28;20177;-61
2022/10/14 01:56:26;;;;;;;17.30;5.20;;;13.10;99.90;;;;;;5054666;28;20248;-60
2022/10/14 01:58:52;;;;;;;14.25;4.68;;;13.20;99.90;;;;;;5068703;28;20258;-60
2022/10/14 02:01:18;;;;;;;14.90;3.63;;;12.40;99.90;;;;;;5072060;28;20216;-60
2022/10/14 02:03:46;;;;;;;11.13;4.87;;;13.10;99.90;;;;;;5060704;28;20200;-60
2022/10/14 02:06:27;;;;;;;10.07;4.20;;;13.10;99.90;;;;;;5072025;28;20542;-60
2022/10/14 02:09:14;;;;;;;9.38;4.20;;;13.10;99.90;;;;;;5072813;28;20172;-61
2022/10/14 02:11:58;;;;;;;18.58;4.93;;;13.20;99.90;;;;;;5061212;28;20172;-61
2022/10/14 02:14:23;;;;;;;8.63;4.17;;;13.20;99.90;;;;;;5072595;28;20176;-62
2022/10/14 02:16:58;;;;;;;10.73;3.83;;;13.20;99.90;;;;;;5069552;28;20208;-61
2022/10/14 02:19:27;;;;;;;10.15;3.97;;;13.20;99.90;;;;;;5053152;28;20226;-61
2022/10/14 02:22:14;;;;;;;9.90;3.78;;;13.20;99.90;;;;;;5068511;28;20238;-61
2022/10/14 02:24:43;;;;;;;8.25;3.35;;;13.20;99.90;;;;;;5052752;28;20165;-61
2022/10/14 02:27:13;;;;;;;11.10;3.90;;;13.30;99.90;;;;;;5068477;28;20226;-60
2022/10/14 02:29:41;;;;;;;11.50;3.40;;;13.30;99.90;;;;;;5071783;28;20191;-60
2022/10/14 02:32:09;;;;;;;8.82;3.47;;;13.40;99.90;;;;;;5071724;28;20233;-60
2022/10/14 02:34:36;;;;;;;7.78;3.55;;;13.40;99.90;;;;;;5064758;28;20177;-60
2022/10/14 02:37:03;;;;;;;6.82;3.20;;;13.50;99.90;;;;;;5063965;28;20262;-61
2022/10/14 02:39:37;;;;;;;7.93;3.10;;;13.50;99.90;;;;;;5071546;28;20176;-61
2022/10/14 02:42:03;;;;;;;9.57;3.40;;;13.50;99.90;;;;;;5060893;28;20177;-61
2022/10/14 02:44:28;;;;;;;7.43;3.30;;;13.50;99.90;;;;;;5062393;28;20207;-61
2022/10/14 02:46:55;;;;;;;6.63;2.73;;;13.50;99.90;;;;;;5070576;28;20181;-61
2022/10/14 02:49:21;;;;;;;6.43;3.10;;;13.90;99.90;;;;;;5072157;28;20653;-61
2022/10/14 02:51:46;;;;;;;11.05;3.05;;;13.50;99.90;;;;;;5071678;28;20180;-61
2022/10/14 02:54:12;;;;;;;9.17;2.70;;;13.40;99.90;;;;;;5070955;28;20184;-61
2022/10/14 02:56:38;;;;;;;11.33;3.37;;;13.40;99.90;;;;;;5071270;28;20212;-61
2022/10/14 02:59:04;;;;;;;8.33;3.30;;;13.40;99.90;;;;;;5071000;28;20211;-61
2022/10/14 03:01:29;;;;;;;13.23;4.25;;;13.30;99.90;;;;;;5070302;28;20212;-61
2022/10/14 03:03:55;;;;;;;9.50;3.80;;;13.40;99.90;;;;;;5070702;28;20306;-61
2022/10/14 03:06:21;;;;;;;9.77;3.40;;;13.50;99.90;;;;;;5070908;28;20647;-61
2022/10/14 03:08:46;;;;;;;7.85;3.90;;;13.50;99.90;;;;;;5070913;28;20173;-61
2022/10/14 03:11:12;;;;;;;9.65;3.75;;;13.50;99.90;;;;;;5071126;28;20184;-61
2022/10/14 03:13:37;;;;;;;8.90;3.72;;;13.50;99.90;;;;;;5070830;28;20631;-61
2022/10/14 03:16:03;;;;;;;7.47;3.77;;;13.60;99.90;;;;;;5060523;28;20822;-60
2022/10/14 03:18:30;;;;;;;8.45;4.28;;;13.60;99.90;;;;;;5070338;28;20167;-61
2022/10/14 03:20:56;;;;;;;7.70;3.80;;;13.60;99.90;;;;;;5069396;28;20525;-61
2022/10/14 03:23:22;;;;;;;8.73;3.85;;;13.60;99.90;;;;;;5067552;28;20215;-61
2022/10/14 03:25:47;;;;;;;13.25;4.20;;;13.70;99.90;;;;;;5070975;28;20251;-61
2022/10/14 03:28:13;;;;;;;7.28;4.05;;;13.60;99.90;;;;;;5069963;28;20176;-63
2022/10/14 03:30:39;;;;;;;13.95;4.22;;;13.70;99.90;;;;;;5066754;28;20643;-61
2022/10/14 03:33:05;;;;;;;7.30;4.47;;;13.70;99.90;;;;;;5070804;28;20180;-62
2022/10/14 03:35:30;;;;;;;11.57;4.50;;;13.70;99.90;;;;;;5069776;28;20207;-62
2022/10/14 03:37:58;;;;;;;6.63;3.65;;;13.70;99.90;;;;;;5070602;28;20188;-62
2022/10/14 03:40:24;;;;;;;9.30;4.60;;;13.60;99.90;;;;;;5067343;28;20287;-62
2022/10/14 03:42:49;;;;;;;10.73;4.10;;;13.60;99.90;;;;;;5062835;28;20235;-62
2022/10/14 03:45:15;;;;;;;8.77;4.15;;;13.60;99.90;;;;;;5068473;28;20212;-63
2022/10/14 03:47:41;;;;;;;10.07;4.57;;;13.60;99.90;;;;;;5070155;28;20192;-61
2022/10/14 03:50:06;;;;;;;9.60;4.20;;;13.60;99.90;;;;;;5070300;28;20247;-63
2022/10/14 03:52:32;;;;;;;9.33;4.37;;;13.70;99.90;;;;;;5065235;28;20184;-64
2022/10/14 03:54:58;;;;;;;8.05;4.05;;;13.60;99.90;;;;;;5068003;28;20188;-63
2022/10/14 03:57:24;;;;;;;8.77;4.32;;;13.50;99.90;;;;;;5070098;28;20225;-64
2022/10/14 03:59:49;;;;;;;14.02;4.60;;;13.60;99.90;;;;;;5070410;28;20177;-64
2022/10/14 04:02:15;;;;;;;10.13;3.92;;;13.60;99.90;;;;;;5068133;28;20587;-63
2022/10/14 04:04:40;;;;;;;9.53;3.73;;;13.60;99.90;;;;;;5056394;28;20176;-64
2022/10/14 04:07:06;;;;;;;9.25;4.18;;;13.60;99.90;;;;;;5065560;28;20180;-64
2022/10/14 04:09:32;;;;;;;11.52;4.00;;;13.60;99.90;;;;;;5070073;28;20160;-64
2022/10/14 04:11:58;;;;;;;8.30;3.77;;;;;;;;;;5058728;28;20693;-63
2022/10/14 04:14:24;;;;;;;7.32;3.97;;;13.60;99.90;;;;;;5070096;28;20207;-64
2022/10/14 04:16:49;;;;;;;7.55;3.95;;;13.60;99.90;;;;;;5069779;28;20270;-64
2022/10/14 04:19:15;;;;;;;9.43;3.93;;;13.40;99.90;;;;;;5068556;28;20542;-64
2022/10/14 04:21:41;;;;;;;12.55;4.00;;;13.50;99.90;;;;;;5059797;28;20188;-63
2022/10/14 04:24:07;;;;;;;10.73;4.50;;;13.50;99.90;;;;;;5070358;28;20549;-63
2022/10/14 04:26:32;;;;;;;7.53;4.22;;;13.50;99.90;;;;;;5057167;28;20272;-63
2022/10/14 04:28:58;;;;;;;7.50;4.00;;;13.40;99.90;;;;;;5050623;28;20165;-63
2022/10/14 04:31:24;;;;;;;8.65;4.30;;;13.50;99.90;;;;;;5061391;28;20197;-63
2022/10/14 04:33:49;;;;;;;10.50;3.92;;;13.60;99.90;;;;;;5055778;28;20281;-64
2022/10/14 04:36:15;;;;;;;8.30;4.00;;;13.60;99.90;;;;;;5070318;28;20215;-64
2022/10/14 04:38:41;;;;;;;9.25;3.78;;;13.60;99.90;;;;;;5070798;28;20229;-64
2022/10/14 04:41:06;;;;;;;7.68;3.97;;;13.50;99.90;;;;;;5065622;28;20177;-63
2022/10/14 04:43:32;;;;;;;9.17;4.33;;;13.50;99.90;;;;;;5061918;28;20251;-62
2022/10/14 04:45:57;;;;;;;6.63;3.78;;;13.50;99.90;;;;;;5061637;28;20168;-62
2022/10/14 04:48:23;;;;;;;8.43;4.17;;;13.60;99.90;;;;;;5073852;28;20656;-62
2022/10/14 04:50:50;;;;;;;8.53;4.27;;;13.60;99.90;;;;;;5073078;28;20168;-62
2022/10/14 04:53:16;;;;;;;6.55;4.10;;;13.50;99.90;;;;;;5073486;28;20183;-62
2022/10/14 04:55:44;;;;;;;7.18;3.97;;;13.60;99.90;;;;;;5071744;28;20640;-62
2022/10/14 04:58:10;;;;;;;7.78;4.15;;;13.10;99.90;;;;;;5063028;28;20263;-62
2022/10/14 05:00:36;;;;;;;8.65;4.00;;;13.60;99.90;;;;;;5073313;28;20608;-62
2022/10/14 05:03:01;;;;;;;9.75;4.32;;;13.70;99.90;;;;;;5069076;28;20545;-62
2022/10/14 05:05:27;;;;;;;9.25;4.40;;;13.60;99.90;;;;;;5056845;28;20624;-63
2022/10/14 05:07:53;;;;;;;9.82;4.30;;;13.70;99.90;;;;;;5073471;28;20212;-62
2022/10/14 05:10:18;;;;;;;7.45;4.15;;;13.70;99.90;;;;;;5073386;28;20206;-62
2022/10/14 05:12:44;;;;;;;7.13;4.43;;;13.80;99.90;;;;;;5073248;28;20185;-62
2022/10/14 05:15:11;;;;;;;9.85;4.68;;;13.70;99.90;;;;;;5062964;28;20176;-61
2022/10/14 05:17:38;;;;;;;9.27;4.28;;;13.70;99.90;;;;;;5072800;28;20227;-62
2022/10/14 05:20:04;;;;;;;9.52;4.78;;;13.70;99.90;;;;;;5072825;28;20187;-62
2022/10/14 05:22:49;;;;;;;10.98;4.85;;;12.80;99.90;;;;;;5119998;22;20512;-62
2022/10/14 05:25:15;;;;;;;11.18;4.85;;;13.70;99.90;;;;;;5100269;22;20252;-61
2022/10/14 05:27:40;;;;;;;11.00;4.40;;;13.70;99.90;;;;;;5090119;28;20255;-60
2022/10/14 05:30:07;;;;;;;10.60;4.10;;;13.70;99.90;;;;;;5093228;28;20183;-60
2022/10/14 05:32:32;;;;;;;8.68;4.43;;;13.80;99.90;;;;;;5093483;28;20168;-61
2022/10/14 05:34:58;;;;;;;6.93;3.78;;;13.80;99.90;;;;;;5075293;28;20267;-60
2022/10/14 05:37:23;;;;;;;9.52;3.85;;;13.80;99.90;;;;;;5093710;28;20568;-61
2022/10/14 05:39:49;;;;;;;9.95;3.78;;;13.70;99.90;;;;;;5092851;28;20172;-61
2022/10/14 05:42:15;;;;;;;10.68;4.10;;;13.50;99.90;;;;;;5093289;28;20672;-61
2022/10/14 05:44:40;;;;;;;8.13;4.03;;;14.00;99.90;;;;;;5091812;28;20269;-61
2022/10/14 05:47:06;;;;;;;7.85;3.63;;;13.90;99.90;;;;;;5091547;28;20213;-61
2022/10/14 05:49:31;;;;;;;7.57;3.40;;;14.00;99.90;;;;;;5092602;28;20321;-60
2022/10/14 05:51:57;;;;;;;6.72;2.95;;;14.00;99.90;;;;;;5092289;28;20262;-61
2022/10/14 05:54:23;;;;;;;9.07;3.50;;;14.00;99.90;;;;;;5092802;28;20188;-61
2022/10/14 05:56:48;;;;;;;11.35;3.95;;;13.80;99.90;;;;;;5092634;28;20215;-61
2022/10/14 05:59:14;;;;;;;7.53;3.40;;;14.00;99.90;;;;;;5092779;28;20529;-61
2022/10/14 06:01:40;;;;;;;7.20;3.83;;;14.00;99.90;;;;;;5092752;28;20229;-61
2022/10/14 06:04:05;;;;;;;5.15;3.25;;;14.00;99.90;;;;;;5093198;28;20191;-61
2022/10/14 06:06:31;;;;;;;8.82;3.00;;;14.00;99.90;;;;;;5090481;28;20270;-61
2022/10/14 06:08:57;;;;;;;7.45;3.13;;;14.10;99.90;;;;;;5092687;28;20681;-61
2022/10/14 06:11:22;;;;;;;7.72;2.65;;;14.00;99.90;;;;;;5092542;28;20176;-60
2022/10/14 06:13:48;;;;;;;8.02;2.92;;;14.10;99.90;;;;;;5092277;28;20579;-61
2022/10/14 06:16:14;;;;;;;5.95;3.30;;;14.10;99.90;;;;;;5092627;28;20203;-61
2022/10/14 06:18:40;;;;;;;5.22;3.28;;;14.10;99.90;;;;;;5092323;28;20259;-61
2022/10/14 06:21:06;;;;;;;4.28;2.85;;;;;;;;;;5092212;28;20187;-59
2022/10/14 06:23:32;;;;;;;6.50;3.33;;;14.10;99.90;;;;;;5092501;28;20237;-60
2022/10/14 06:25:58;;;;;;;5.93;3.08;;;14.20;99.90;;;;;;5091833;28;20697;-59
2022/10/14 06:28:24;;;;;;;6.47;3.63;;;14.20;99.90;;;;;;5092474;28;20176;-59
2022/10/14 06:30:53;;;;;;;7.13;2.75;;;14.20;99.90;;;;;;5092392;28;20201;-60
2022/10/14 06:33:20;;;;;;;6.13;3.00;;;14.20;99.90;;;;;;5072358;28;20169;-60
2022/10/14 06:35:46;;;;;;;6.80;3.05;;;14.20;99.90;;;;;;5073633;28;20290;-61
2022/10/14 06:38:13;;;;;;;4.20;3.17;;;14.20;99.90;;;;;;5091542;28;20210;-65
2022/10/14 06:40:38;;;;;;;5.72;3.10;;;14.20;99.90;;;;;;5091274;28;20195;-65
2022/10/14 06:43:04;;;;;;;8.07;3.13;;;14.30;99.90;;;;;;5091312;28;20646;-64
2022/10/14 06:45:30;;;;;;;3.97;2.80;;;14.10;99.90;;;;;;5085666;28;20269;-65
2022/10/14 06:47:56;;;;;;;5.80;2.72;;;14.40;99.90;;;;;;5091012;28;20183;-65
2022/10/14 06:50:22;;;;;;;7.88;3.13;;;14.30;99.90;;;;;;5091707;28;20187;-61
2022/10/14 06:52:47;;;;;;;3.70;2.80;;;14.30;99.90;;;;;;5091532;28;20184;-61
2022/10/14 06:55:13;;;;;;;9.02;2.80;;;14.30;99.90;;;;;;5091979;28;20252;-62
2022/10/14 06:57:39;;;;;;;8.30;3.08;;;14.50;99.90;;;;;;5091913;28;20306;-62
2022/10/14 07:00:06;;;;;;;5.18;2.67;;;14.30;99.90;;;;;;5091509;28;20172;-62
2022/10/14 07:02:32;;;;;;;6.50;2.70;;;14.40;99.90;;;;;;5091401;28;20229;-62
2022/10/14 07:04:57;;;;;;;4.25;2.58;;;14.30;99.90;;;;;;5091897;28;20217;-63
2022/10/14 07:07:23;;;;;;;7.00;3.08;;;14.40;99.90;;;;;;5091797;28;20180;-57
2022/10/14 07:09:49;;;;;;;5.38;2.67;;;14.30;99.90;;;;;;5091518;28;20264;-57
2022/10/14 07:12:15;;;;;;;8.85;2.97;;;14.30;99.90;;;;;;5091772;28;20175;-60
2022/10/14 07:14:41;;;;;;;5.32;2.40;;;14.30;99.90;;;;;;5091860;28;20549;-60
2022/10/14 07:17:07;;;;;;;7.63;2.55;;;14.20;99.90;;;;;;5091736;28;20290;-60
2022/10/14 07:19:33;;;;;;;5.85;2.33;;;14.30;99.90;;;;;;5091158;28;20168;-60
2022/10/14 07:21:59;;;;;;;6.35;2.40;;;14.30;99.90;;;;;;5091676;28;20176;-60
2022/10/14 07:24:24;;;;;;;5.80;2.95;;;14.30;99.90;;;;;;5091518;28;20225;-60
2022/10/14 07:26:50;;;;;;;4.68;2.47;;;14.30;99.90;;;;;;5091389;28;20179;-60
2022/10/14 07:29:16;;;;;;;10.82;2.30;;;14.30;99.90;;;;;;5090297;28;20172;-59
2022/10/14 07:31:42;;;;;;;9.93;2.63;;;14.30;99.90;;;;;;5091162;28;20229;-61
2022/10/14 07:34:07;;;;;;;6.15;2.80;;;14.40;99.90;;;;;;5091362;28;20172;-61
2022/10/14 07:36:33;;;;;;;6.60;2.53;;;14.40;99.90;;;;;;5091288;28;20669;-61
2022/10/14 07:38:59;;;;;;;7.40;2.70;;;14.50;99.90;;;;;;5089848;28;20702;-58
2022/10/14 07:41:25;;;;;;;5.57;2.72;;;14.50;99.90;;;;;;5079851;28;20204;-58
2022/10/14 07:43:54;;;;;;;6.80;2.83;;;14.50;99.90;;;;;;5081389;28;20649;-58
2022/10/14 07:46:31;;;;;;;5.70;2.50;;;14.50;99.90;;;;;;5081251;28;20585;-58
2022/10/14 07:48:59;;;;;;;5.70;2.60;;;14.50;99.90;;;;;;5067086;28;20168;-59
2022/10/14 07:51:26;;;;;;;4.43;2.08;;;14.50;99.90;;;;;;5072962;28;20542;-58
2022/10/14 07:53:53;;;;;;;7.77;2.77;;;14.50;99.90;;;;;;5078160;28;20176;-57
2022/10/14 07:56:21;;;;;;;6.10;2.30;;;14.40;99.90;;;;;;5090866;28;20230;-57
2022/10/14 07:58:46;;;;;;;7.65;2.67;;;14.40;99.90;;;;;;5090487;28;20195;-63
2022/10/14 08:01:14;;;;;;;6.72;2.55;;;14.40;99.90;;;;;;5089644;28;20645;-58
2022/10/14 08:03:40;;;;;;;5.57;2.80;;;14.40;99.90;;;;;;5090433;28;20188;-58
2022/10/14 08:06:06;;;;;;;4.90;3.00;;;14.30;99.90;;;;;;5090952;28;20194;-58
2022/10/14 08:08:32;;;;;;;4.57;2.70;;;14.30;99.90;;;;;;5090798;28;20661;-58
2022/10/14 08:11:04;;;;;;;6.70;3.17;;;14.40;99.90;;;;;;5089790;28;20297;-58
2022/10/14 08:13:30;;;;;;;14.27;3.00;;;14.40;99.90;;;;;;5089455;28;20180;-58
2022/10/14 08:15:56;;;;;;;6.78;2.55;;;14.40;99.90;;;;;;5090076;28;20239;-58
2022/10/14 08:18:23;;;;;;;7.03;2.60;;;14.40;99.90;;;;;;5089994;28;20657;-58
2022/10/14 08:20:48;;;;;;;7.82;2.60;;;14.40;99.90;;;;;;5090907;28;20172;-58
2022/10/14 08:23:14;;;;;;;5.55;2.65;;;14.40;99.90;;;;;;5090846;28;20558;-58
2022/10/14 08:25:40;;;;;;;7.90;2.97;;;;;;;;;;5090185;28;20215;-58
2022/10/14 08:28:05;;;;;;;13.27;3.17;;;14.40;99.90;;;;;;5087455;28;20177;-58
2022/10/14 08:30:31;;;;;;;4.32;2.53;;;14.40;99.90;;;;;;5083658;28;20177;-58
2022/10/14 08:32:58;;;;;;;7.15;2.53;;;14.30;99.90;;;;;;5086608;28;20669;-58
2022/10/14 08:35:24;;;;;;;5.20;2.20;;;14.00;99.90;;;;;;5089977;28;20203;-58
2022/10/14 08:38:01;;;;;;;2.35;1.27;;;14.10;99.90;;;;;;5088554;28;20538;-58
2022/10/14 08:40:28;;;;;;;3.78;1.70;;;14.30;99.90;;;;;;5089897;28;20203;-58
2022/10/14 08:43:04;;;;;;;2.35;1.15;;;14.20;99.90;;;;;;5089928;28;20179;-58
2022/10/14 08:45:33;;;;;;;2.20;0.80;;;14.10;99.90;;;;;;5089131;28;20207;-58
2022/10/14 08:48:02;;;;;;;2.47;0.98;;;14.20;99.90;;;;;;5089275;28;20540;-58
2022/10/14 08:50:40;;;;;;;1.52;0.80;;;14.10;99.90;;;;;;5089608;28;20176;-58
2022/10/14 08:53:12;;;;;;;2.55;0.70;;;14.00;99.90;;;;;;5089275;28;20260;-58
2022/10/14 08:55:46;;;;;;;3.40;1.00;;;14.00;99.90;;;;;;5088727;28;20196;-58
2022/10/14 08:58:19;;;;;;;1.33;0.80;;;14.10;99.90;;;;;;5074893;28;20412;-58
2022/10/14 09:00:49;;;;;;;4.65;0.90;;;14.20;99.90;;;;;;5077675;28;20250;-58
2022/10/14 09:03:32;;;;;;;1.25;0.50;;;14.40;99.90;;;;;;5088573;28;20561;-59
2022/10/14 09:06:25;;;;;;;0.40;0.40;;;13.90;99.90;;;;;;5089115;28;20183;-58
2022/10/14 09:08:55;;;;;;;1.00;0.57;;;14.10;99.90;;;;;;5081414;28;20507;-58
2022/10/14 09:11:23;;;;;;;1.40;0.45;;;13.80;99.90;;;;;;5090221;28;20259;-58
2022/10/14 09:13:58;;;;;;;1.88;0.50;;;14.00;99.90;;;;;;5089080;28;20180;-58
2022/10/14 09:16:25;;;;;;;2.20;0.60;;;14.00;99.90;;;;;;5087858;28;20211;-59
2022/10/14 09:18:55;;;;;;;1.27;0.80;;;13.70;99.90;;;;;;5069893;28;20176;-59
2022/10/14 09:21:38;;;;;;;2.25;0.73;;;14.00;99.90;;;;;;5090243;28;20279;-60
2022/10/14 09:24:34;;;;;;;1.00;0.65;;;14.00;99.90;;;;;;5089930;28;20235;-59
2022/10/14 09:27:06;;;;;;;5.07;0.63;;;14.00;99.90;;;;;;5092726;28;20187;-60
2022/10/14 09:29:58;;;;;;;3.35;0.90;;;13.80;99.90;;;;;;5092422;28;20190;-60
2022/10/14 09:32:38;;;;;;;1.20;0.67;;;13.90;99.90;;;;;;5093642;28;20199;-60
2022/10/14 09:35:14;;;;;;;5.25;0.95;;;14.00;99.90;;;;;;5093427;28;20683;-60
2022/10/14 09:37:41;;;;;;;2.40;0.67;;;14.00;99.90;;;;;;5075092;28;20190;-60
2022/10/14 09:40:33;;;;;;;2.47;0.95;;;14.00;99.90;;;;;;5075375;28;20172;-60
2022/10/14 09:43:07;;;;;;;4.85;0.75;;;14.30;99.90;;;;;;5091418;28;20168;-60
2022/10/14 09:45:51;;;;;;;2.08;0.82;;;14.10;99.90;;;;;;5091570;28;20176;-60
2022/10/14 09:48:25;;;;;;;2.33;0.70;;;14.20;99.90;;;;;;5091679;28;20171;-60
2022/10/14 09:50:54;;;;;;;3.00;0.90;;;14.40;99.90;;;;;;5091612;28;20641;-60
2022/10/14 09:53:35;;;;;;;6.15;1.17;;;14.40;99.90;;;;;;5073405;28;20232;-60
2022/10/14 09:56:03;;;;;;;2.17;1.27;;;14.80;99.90;;;;;;5091599;28;20199;-61
2022/10/14 09:58:45;;;;;;;2.55;1.10;;;14.70;99.90;;;;;;5093195;28;20184;-60
2022/10/14 10:01:18;;;;;;;3.45;1.38;;;14.50;99.90;;;;;;5092850;28;20211;-60
2022/10/14 10:03:44;;;;;;;3.15;1.40;;;14.50;99.90;;;;;;5093122;28;20207;-60
2022/10/14 10:06:25;;;;;;;4.80;1.45;;;14.50;99.90;;;;;;5092806;28;20182;-60
2022/10/14 10:08:56;;;;;;;2.60;1.20;;;14.40;99.90;;;;;;5092907;28;20174;-60
2022/10/14 10:11:36;;;;;;;4.60;1.83;;;14.40;99.90;;;;;;5092790;28;20200;-60
2022/10/14 10:14:24;;;;;;;1.20;1.10;;;14.20;99.90;;;;;;5093129;28;20174;-61
2022/10/14 10:17:11;;;;;;;4.78;1.17;;;14.40;99.90;;;;;;5074636;28;20290;-59
2022/10/14 10:19:46;;;;;;;5.13;1.25;;;14.50;99.90;;;;;;5092697;28;20218;-59
2022/10/14 10:22:25;;;;;;;2.38;1.05;;;14.60;99.90;;;;;;5092858;28;20258;-59
2022/10/14 10:25:11;;;;;;;3.25;0.88;;;14.70;99.90;;;;;;5092632;28;20256;-59
2022/10/14 10:27:44;;;;;;;3.70;1.00;;;14.80;99.90;;;;;;5078558;28;20219;-60
2022/10/14 10:30:34;;;;;;;4.60;0.90;;;15.00;99.90;;;;;;5092823;28;20247;-60
2022/10/14 10:33:20;;;;;;;1.48;0.60;;;15.20;99.90;;;;;;5092633;28;20160;-60
2022/10/14 10:36:14;;;;;;;5.25;0.75;;;15.00;99.90;;;;;;5073939;28;20211;-60
2022/10/14 10:38:49;;;;;;;2.42;0.80;;;15.00;99.90;;;;;;5092585;28;20191;-60
2022/10/14 10:41:25;;;;;;;2.45;1.00;;;15.10;99.90;;;;;;5092226;28;20167;-60
2022/10/14 10:44:15;;;;;;;1.33;0.77;;;15.20;99.90;;;;;;5092180;28;20168;-60
2022/10/14 10:46:44;;;;;;;3.70;0.93;;;15.40;99.90;;;;;;5092221;28;20168;-60
2022/10/14 10:49:31;;;;;;;1.17;0.90;;;14.70;99.90;;;;;;5092182;28;20168;-59
2022/10/14 10:51:59;;;;;;;2.13;0.73;;;15.00;99.90;;;;;;5091954;28;20689;-60
2022/10/14 10:54:24;;;;;;;2.33;0.80;;;15.20;99.90;;;;;;5091962;28;20358;-59
2022/10/14 10:56:56;;;;;;;2.05;0.98;;;15.20;99.90;;;;;;5092214;28;20639;-60
2022/10/14 10:59:42;;;;;;;1.75;0.88;;;15.30;99.90;;;;;;5092341;28;20241;-60
2022/10/14 11:02:19;;;;;;;3.63;0.80;;;15.30;99.90;;;;;;5091947;28;20176;-59
2022/10/14 11:04:52;;;;;;;3.38;1.20;;;15.50;99.90;;;;;;5091843;28;20271;-59
2022/10/14 11:13:37;;;;;;;1.77;1.05;;;15.60;99.90;;;;;;5091991;28;20680;-59
2022/10/14 11:16:14;;;;;;;3.85;1.08;;;15.70;99.90;;;;;;5091572;28;20211;-59
2022/10/14 11:18:53;;;;;;;5.18;1.30;;;15.70;99.90;;;;;;5091606;28;20226;-59
2022/10/14 11:21:36;;;;;;;2.00;1.10;;;15.50;99.90;;;;;;5091559;28;20160;-59
2022/10/14 11:24:05;;;;;;;2.75;1.20;;;15.60;99.90;;;;;;5091421;28;20708;-59
2022/10/14 11:27:08;;;;;;;4.38;1.10;;;15.60;99.90;;;;;;5091588;28;20180;-60
2022/10/14 11:29:36;;;;;;;6.93;1.25;;;15.50;99.90;;;;;;5089376;28;20665;-60
2022/10/14 11:32:24;;;;;;;1.83;1.00;;;14.80;99.90;;;;;;5091290;28;20626;-60
2022/10/14 11:35:12;;;;;;;3.17;1.02;;;15.60;99.90;;;;;;5073218;28;20187;-60
2022/10/14 11:37:50;;;;;;;3.40;1.30;;;15.80;99.90;;;;;;5091178;28;20179;-60
2022/10/14 11:40:35;;;;;;;2.72;0.80;;;16.00;99.90;;;;;;5091369;28;20175;-60
2022/10/14 11:43:53;;;;;;;7.28;1.05;;;16.30;99.90;;;;;;5091167;28;20561;-59
2022/10/14 11:46:21;;;;;;;5.20;1.88;;;16.60;99.90;;;;;;5047282;28;20192;-60
2022/10/14 11:49:01;;;;;;;5.15;1.40;;;16.80;99.90;;;;;;5089525;28;20583;-60
2022/10/14 11:52:02;;;;;;;1.92;1.02;;;17.30;99.90;;;;;;5085537;28;20193;-60
2022/10/14 11:54:55;;;;;;;4.72;1.20;;;17.10;99.90;;;;;;5081525;28;20204;-60
2022/10/14 11:57:44;;;;;;;4.82;1.30;;;17.20;99.90;;;;;;5091042;28;20199;-60
2022/10/14 12:00:17;;;;;;;4.20;1.30;;;16.90;99.90;;;;;;5072900;28;20267;-61
2022/10/14 12:02:54;;;;;;;5.45;1.50;;;16.50;99.90;;;;;;5090922;28;20221;-61
2022/10/14 12:05:54;;;;;;;5.57;1.30;;;16.70;99.90;;;;;;5087930;28;20258;-61
2022/10/14 12:08:39;;;;;;;5.85;1.45;;;17.70;99.90;;;;;;5069436;28;20181;-59
2022/10/14 12:11:29;;;;;;;6.53;1.63;;;17.90;99.90;;;;;;5088042;28;20160;-59
2022/10/14 12:14:20;;;;;;;7.90;1.70;;;19.20;99.90;;;;;;5090219;28;20172;-60
2022/10/14 12:16:47;;;;;;;6.07;1.25;;;22.10;99.90;;;;;;5089015;28;20229;-60
2022/10/14 12:19:20;;;;;;;4.85;1.35;;;22.20;99.90;;;;;;5071849;28;20175;-59
2022/10/14 12:22:05;;;;;;;4.90;1.40;;;22.20;99.90;;;;;;5087246;28;20272;-60
2022/10/14 12:24:38;;;;;;;3.92;1.20;;;22.70;99.90;;;;;;5083674;28;20219;-60
2022/10/14 12:27:08;;;;;;;2.85;0.98;;;22.20;99.90;;;;;;5089916;28;20171;-59
2022/10/14 12:29:41;;;;;;;5.57;1.75;;;22.50;99.90;;;;;;5072245;28;20175;-60
2022/10/14 12:32:29;;;;;;;5.80;1.15;;;22.60;99.90;;;;;;5088671;28;20244;-60
2022/10/14 12:34:57;;;;;;;4.90;1.17;;;24.10;99.90;;;;;;5071895;28;20180;-60
2022/10/14 12:37:30;;;;;;;5.00;1.05;;;23.00;99.90;;;;;;5089055;28;20265;-60
2022/10/14 12:40:21;;;;;;;9.07;1.05;;;22.00;99.90;;;;;;5090061;28;20168;-60
2022/10/14 12:43:03;;;;;;;8.90;1.42;;;23.60;99.90;;;;;;5089738;28;20217;-61
2022/10/14 12:45:32;;;;;;;7.00;1.08;;;23.70;99.90;;;;;;5090047;28;20179;-61
2022/10/14 12:48:25;;;;;;;5.78;1.40;;;26.00;99.90;;;;;;5083828;28;20172;-62
2022/10/14 12:51:10;;;;;;;3.53;0.85;;;26.60;99.90;;;;;;5061911;28;20192;-61
2022/10/14 12:53:45;;;;;;;7.35;1.13;;;26.40;99.90;;;;;;5069635;28;20180;-61
2022/10/14 12:56:28;;;;;;;4.82;1.27;;;24.30;99.90;;;;;;5076373;28;20206;-61
2022/10/14 12:59:02;;;;;;;5.05;1.35;;;23.10;99.90;;;;;;5085950;28;20227;-61
2022/10/14 13:01:29;;;;;;;3.97;1.30;;;21.60;99.90;;;;;;5073568;28;20187;-59
2022/10/14 13:04:01;;;;;;;7.55;1.33;;;20.90;99.90;;;;;;5073373;28;20642;-59
2022/10/14 13:06:36;;;;;;;6.85;1.20;;;20.90;99.90;;;;;;5073539;28;20218;-59
2022/10/14 13:09:29;;;;;;;4.15;1.30;;;23.20;99.90;;;;;;5091826;28;20653;-59
2022/10/14 13:11:55;;;;;;;6.72;1.20;;;22.60;99.90;;;;;;5065788;28;20195;-59
2022/10/14 13:14:28;;;;;;;5.25;1.17;;;24.30;99.90;;;;;;5073505;28;20156;-59